createdAt,value
2024-05-09T00:00:42.168Z,8.84
2024-05-09T00:01:34.061Z,8.88
2024-05-09T00:02:25.757Z,8.86
2024-05-09T00:03:17.416Z,8.85
2024-05-09T00:04:09.120Z,8.83
2024-05-09T00:05:00.752Z,8.89
2024-05-09T00:05:52.497Z,8.93
2024-05-09T00:06:44.091Z,8.91
2024-05-09T00:07:35.808Z,8.92
2024-05-09T00:08:27.489Z,8.89
2024-05-09T00:09:19.071Z,8.83
2024-05-09T00:10:17.863Z,8.81
2024-05-09T00:11:16.158Z,8.83
2024-05-09T00:12:07.959Z,8.82
2024-05-09T00:12:59.736Z,8.79
2024-05-09T00:13:51.288Z,8.75
2024-05-09T00:14:42.824Z,8.76
2024-05-09T00:15:35.036Z,8.76
2024-05-09T00:16:27.066Z,8.74
2024-05-09T00:17:18.786Z,8.74
2024-05-09T00:18:10.492Z,8.76
2024-05-09T00:19:02.252Z,8.73
2024-05-09T00:19:53.989Z,8.69
2024-05-09T00:20:45.585Z,8.68
2024-05-09T00:21:41.391Z,8.65
2024-05-09T00:22:32.898Z,8.62
2024-05-09T00:23:24.832Z,8.61
2024-05-09T00:24:16.530Z,8.62
2024-05-09T00:25:08.756Z,8.61
2024-05-09T00:26:00.619Z,8.62
2024-05-09T00:26:52.281Z,8.68
2024-05-09T00:27:43.822Z,8.72
2024-05-09T00:28:35.366Z,8.75
2024-05-09T00:29:27.143Z,8.68
2024-05-09T00:30:27.755Z,8.67
2024-05-09T00:31:26.090Z,8.67
2024-05-09T00:32:17.728Z,8.69
2024-05-09T00:33:10.891Z,8.67
2024-05-09T00:34:03.467Z,8.67
2024-05-09T00:34:55.172Z,8.69
2024-05-09T00:35:46.844Z,8.71
2024-05-09T00:36:38.392Z,8.73
2024-05-09T00:37:29.929Z,8.70
2024-05-09T00:38:21.559Z,8.66
2024-05-09T00:39:13.244Z,8.66
2024-05-09T00:40:07.423Z,8.60
2024-05-09T00:41:01.184Z,8.60
2024-05-09T00:41:52.742Z,8.53
2024-05-09T00:42:46.995Z,8.47
2024-05-09T00:43:38.588Z,8.43
2024-05-09T00:44:30.223Z,8.42
2024-05-09T00:45:21.854Z,8.44
2024-05-09T00:46:13.730Z,8.47
2024-05-09T00:47:05.971Z,8.43
2024-05-09T00:48:01.564Z,8.38
2024-05-09T00:48:53.491Z,8.38
2024-05-09T00:49:45.806Z,8.37
2024-05-09T00:50:41.182Z,8.39
2024-05-09T00:51:33.384Z,8.36
2024-05-09T00:52:25.111Z,8.32
2024-05-09T00:53:19.123Z,8.27
2024-05-09T00:54:10.864Z,8.26
2024-05-09T00:55:02.851Z,8.23
2024-05-09T00:55:55.947Z,8.20
2024-05-09T00:56:49.818Z,8.22
2024-05-09T00:57:43.002Z,8.21
2024-05-09T00:58:34.638Z,8.20
2024-05-09T00:59:27.816Z,8.18
2024-05-09T01:00:27.253Z,8.18
2024-05-09T01:01:28.343Z,8.23
2024-05-09T01:02:22.615Z,8.18
2024-05-09T01:03:14.701Z,8.13
2024-05-09T01:04:06.926Z,8.11
2024-05-09T01:04:58.767Z,8.12
2024-05-09T01:05:50.610Z,8.14
2024-05-09T01:06:43.060Z,8.11
2024-05-09T01:07:34.814Z,8.10
2024-05-09T01:08:27.089Z,8.10
2024-05-09T01:09:18.736Z,8.15
2024-05-09T01:10:14.353Z,8.17
2024-05-09T01:11:12.712Z,8.10
2024-05-09T01:12:04.642Z,8.07
2024-05-09T01:12:56.214Z,8.01
2024-05-09T01:13:47.721Z,8.00
2024-05-09T01:14:39.268Z,8.01
2024-05-09T01:15:31.402Z,8.07
2024-05-09T01:16:23.336Z,8.07
2024-05-09T01:17:15.181Z,8.12
2024-05-09T01:18:10.731Z,8.08
2024-05-09T01:19:04.495Z,8.00
2024-05-09T01:19:56.259Z,8.02
2024-05-09T01:20:47.915Z,8.02
2024-05-09T01:21:41.569Z,8.02
2024-05-09T01:22:36.652Z,8.04
2024-05-09T01:23:28.266Z,8.05
2024-05-09T01:24:19.932Z,8.07
2024-05-09T01:25:11.453Z,8.01
2024-05-09T01:26:03.110Z,7.97
2024-05-09T01:26:54.669Z,7.93
2024-05-09T01:27:46.223Z,7.92
2024-05-09T01:28:37.825Z,7.89
2024-05-09T01:29:29.409Z,7.85
2024-05-09T01:30:24.643Z,7.83
2024-05-09T01:31:22.875Z,7.82
2024-05-09T01:32:14.423Z,7.81
2024-05-09T01:33:09.057Z,7.82
2024-05-09T01:34:02.396Z,7.82
2024-05-09T01:34:53.948Z,7.85
2024-05-09T01:35:45.577Z,7.81
2024-05-09T01:36:37.097Z,7.80
2024-05-09T01:37:28.630Z,7.74
2024-05-09T01:38:20.268Z,7.73
2024-05-09T01:39:11.786Z,7.79
2024-05-09T01:40:03.698Z,7.76
2024-05-09T01:40:55.594Z,7.74
2024-05-09T01:41:47.190Z,7.73
2024-05-09T01:42:38.714Z,7.80
2024-05-09T01:43:30.211Z,7.75
2024-05-09T01:44:21.828Z,7.71
2024-05-09T01:45:13.412Z,7.70
2024-05-09T01:46:04.948Z,7.66
2024-05-09T01:46:56.565Z,7.69
2024-05-09T01:47:48.303Z,7.69
2024-05-09T01:48:40.096Z,7.70
2024-05-09T01:49:36.655Z,7.68
2024-05-09T01:50:37.924Z,7.61
2024-05-09T01:51:32.714Z,7.57
2024-05-09T01:52:24.262Z,7.59
2024-05-09T01:53:15.785Z,7.54
2024-05-09T01:54:07.329Z,7.57
2024-05-09T01:55:00.766Z,7.54
2024-05-09T01:55:54.150Z,7.59
2024-05-09T01:56:45.718Z,7.58
2024-05-09T01:57:37.266Z,7.57
2024-05-09T01:58:29.935Z,7.53
2024-05-09T01:59:21.580Z,7.49
2024-05-09T02:01:07.203Z,7.50
2024-05-09T02:01:58.744Z,7.50
2024-05-09T02:02:50.474Z,7.53
2024-05-09T02:03:45.471Z,7.52
2024-05-09T02:04:37.080Z,7.49
2024-05-09T02:05:28.723Z,7.47
2024-05-09T02:06:20.332Z,7.44
2024-05-09T02:07:11.874Z,7.38
2024-05-09T02:08:04.132Z,7.37
2024-05-09T02:08:55.662Z,7.37
2024-05-09T02:09:47.213Z,7.38
2024-05-09T02:10:38.719Z,7.40
2024-05-09T02:11:30.310Z,7.39
2024-05-09T02:12:22.083Z,7.37
2024-05-09T02:13:14.457Z,7.38
2024-05-09T02:14:06.845Z,7.38
2024-05-09T02:14:58.441Z,7.38
2024-05-09T02:15:52.273Z,7.35
2024-05-09T02:16:43.975Z,7.31
2024-05-09T02:17:35.702Z,7.26
2024-05-09T02:18:27.464Z,7.26
2024-05-09T02:19:19.192Z,7.24
2024-05-09T02:20:18.851Z,7.22
2024-05-09T02:21:18.666Z,7.21
2024-05-09T02:22:10.368Z,7.18
2024-05-09T02:23:03.454Z,7.19
2024-05-09T02:23:55.061Z,7.17
2024-05-09T02:24:46.635Z,7.15
2024-05-09T02:25:38.403Z,7.13
2024-05-09T02:26:30.023Z,7.11
2024-05-09T02:27:21.590Z,7.07
2024-05-09T02:28:13.133Z,7.06
2024-05-09T02:29:04.786Z,7.04
2024-05-09T02:29:56.345Z,7.02
2024-05-09T02:30:47.844Z,7.06
2024-05-09T02:31:39.375Z,7.11
2024-05-09T02:32:31.049Z,7.17
2024-05-09T02:33:22.833Z,7.14
2024-05-09T02:34:14.678Z,7.16
2024-05-09T02:35:06.359Z,7.13
2024-05-09T02:35:57.920Z,7.13
2024-05-09T02:36:49.453Z,7.12
2024-05-09T02:37:40.996Z,7.11
2024-05-09T02:38:32.724Z,7.12
2024-05-09T02:39:24.407Z,7.11
2024-05-09T02:40:21.650Z,7.12
2024-05-09T02:41:17.300Z,7.07
2024-05-09T02:42:08.848Z,7.04
2024-05-09T02:43:00.975Z,7.02
2024-05-09T02:43:52.884Z,7.03
2024-05-09T02:44:44.450Z,6.99
2024-05-09T02:45:36.042Z,6.98
2024-05-09T02:46:27.592Z,6.99
2024-05-09T02:47:19.240Z,7.06
2024-05-09T02:48:12.613Z,7.04
2024-05-09T02:49:05.164Z,7.06
2024-05-09T02:49:56.747Z,7.05
2024-05-09T02:50:48.448Z,7.05
2024-05-09T02:51:39.943Z,7.07
2024-05-09T02:52:31.444Z,7.12
2024-05-09T02:53:23.070Z,7.08
2024-05-09T02:54:14.627Z,7.08
2024-05-09T02:55:06.202Z,7.04
2024-05-09T02:55:57.761Z,7.04
2024-05-09T02:56:49.283Z,7.05
2024-05-09T02:57:40.835Z,7.07
2024-05-09T02:58:32.362Z,7.07
2024-05-09T02:59:23.998Z,7.06
2024-05-09T03:00:22.536Z,7.07
2024-05-09T03:01:18.151Z,7.05
2024-05-09T03:02:09.832Z,7.03
2024-05-09T03:03:01.704Z,7.04
2024-05-09T03:03:53.464Z,7.01
2024-05-09T03:04:45.231Z,6.95
2024-05-09T03:05:37.488Z,6.89
2024-05-09T03:06:29.081Z,6.83
2024-05-09T03:07:20.565Z,6.83
2024-05-09T03:08:12.312Z,6.78
2024-05-09T03:09:04.852Z,6.75
2024-05-09T03:09:56.391Z,6.78
2024-05-09T03:10:47.928Z,6.81
2024-05-09T03:11:40.436Z,6.82
2024-05-09T03:12:32.175Z,6.80
2024-05-09T03:13:23.678Z,6.81
2024-05-09T03:14:18.710Z,6.80
2024-05-09T03:15:10.317Z,6.86
2024-05-09T03:16:02.026Z,6.87
2024-05-09T03:16:53.637Z,6.83
2024-05-09T03:17:45.300Z,6.80
2024-05-09T03:18:37.087Z,6.80
2024-05-09T03:19:28.760Z,6.79
2024-05-09T03:20:24.138Z,6.75
2024-05-09T03:21:19.474Z,6.71
2024-05-09T03:22:12.393Z,6.73
2024-05-09T03:23:05.562Z,6.73
2024-05-09T03:23:57.582Z,6.69
2024-05-09T03:24:49.077Z,6.70
2024-05-09T03:25:40.656Z,6.68
2024-05-09T03:26:32.267Z,6.64
2024-05-09T03:27:24.832Z,6.62
2024-05-09T03:28:16.394Z,6.63
2024-05-09T03:29:08.042Z,6.60
2024-05-09T03:29:59.579Z,6.62
2024-05-09T03:30:51.150Z,6.60
2024-05-09T03:31:42.816Z,6.60
2024-05-09T03:32:34.555Z,6.67
2024-05-09T03:33:26.577Z,6.65
2024-05-09T03:34:18.526Z,6.61
2024-05-09T03:35:10.234Z,6.63
2024-05-09T03:36:04.237Z,6.61
2024-05-09T03:36:56.595Z,6.56
2024-05-09T03:37:48.192Z,6.52
2024-05-09T03:38:39.923Z,6.54
2024-05-09T03:39:31.470Z,6.50
2024-05-09T03:40:26.564Z,6.46
2024-05-09T03:41:23.422Z,6.46
2024-05-09T03:42:14.999Z,6.45
2024-05-09T03:43:07.108Z,6.40
2024-05-09T03:43:58.744Z,6.38
2024-05-09T03:44:51.003Z,6.43
2024-05-09T03:45:43.087Z,6.43
2024-05-09T03:46:41.087Z,6.40
2024-05-09T03:47:35.276Z,6.38
2024-05-09T03:48:27.176Z,6.39
2024-05-09T03:49:18.862Z,6.35
2024-05-09T03:50:18.151Z,6.30
2024-05-09T03:51:17.201Z,6.27
2024-05-09T03:52:08.809Z,6.28
2024-05-09T03:53:01.087Z,6.29
2024-05-09T03:53:52.735Z,6.28
2024-05-09T03:54:47.427Z,6.31
2024-05-09T03:55:39.178Z,6.31
2024-05-09T03:56:30.953Z,6.22
2024-05-09T03:57:22.548Z,6.19
2024-05-09T03:58:14.451Z,6.25
2024-05-09T03:59:06.039Z,6.32
2024-05-09T03:59:57.627Z,6.34
2024-05-09T04:00:49.160Z,6.36
2024-05-09T04:01:40.871Z,6.37
2024-05-09T04:02:32.555Z,6.43
2024-05-09T04:03:24.382Z,6.42
2024-05-09T04:04:17.301Z,6.43
2024-05-09T04:05:09.359Z,6.43
2024-05-09T04:06:00.881Z,6.40
2024-05-09T04:06:52.458Z,6.44
2024-05-09T04:07:44.631Z,6.45
2024-05-09T04:08:36.406Z,6.45
2024-05-09T04:09:28.584Z,6.46
2024-05-09T04:10:27.749Z,6.46
2024-05-09T04:11:24.314Z,6.43
2024-05-09T04:12:16.079Z,6.44
2024-05-09T04:13:07.763Z,6.47
2024-05-09T04:14:00.323Z,6.47
2024-05-09T04:14:51.935Z,6.43
2024-05-09T04:15:43.443Z,6.42
2024-05-09T04:16:34.988Z,6.39
2024-05-09T04:17:27.061Z,6.42
2024-05-09T04:18:19.010Z,6.37
2024-05-09T04:19:10.654Z,6.35
2024-05-09T04:20:02.433Z,6.36
2024-05-09T04:20:54.020Z,6.35
2024-05-09T04:21:45.554Z,6.37
2024-05-09T04:22:37.105Z,6.35
2024-05-09T04:23:28.693Z,6.40
2024-05-09T04:24:20.298Z,6.43
2024-05-09T04:25:12.675Z,6.42
2024-05-09T04:26:04.767Z,6.41
2024-05-09T04:26:56.519Z,6.41
2024-05-09T04:27:48.024Z,6.45
2024-05-09T04:28:39.574Z,6.50
2024-05-09T04:29:31.995Z,6.52
2024-05-09T04:30:34.276Z,6.51
2024-05-09T04:31:30.242Z,6.49
2024-05-09T04:32:21.804Z,6.49
2024-05-09T04:33:14.830Z,6.47
2024-05-09T04:34:07.025Z,6.52
2024-05-09T04:34:58.861Z,6.51
2024-05-09T04:35:50.391Z,6.57
2024-05-09T04:36:44.325Z,6.58
2024-05-09T04:37:36.122Z,6.60
2024-05-09T04:38:29.606Z,6.64
2024-05-09T04:39:21.210Z,6.67
2024-05-09T04:40:24.037Z,6.72
2024-05-09T04:41:22.679Z,6.69
2024-05-09T04:42:14.297Z,6.71
2024-05-09T04:43:07.271Z,6.72
2024-05-09T04:43:59.171Z,6.76
2024-05-09T04:44:50.720Z,6.73
2024-05-09T04:45:42.509Z,6.78
2024-05-09T04:46:33.989Z,6.82
2024-05-09T04:47:25.603Z,6.85
2024-05-09T04:48:17.409Z,6.86
2024-05-09T04:49:09.251Z,6.88
2024-05-09T04:50:00.810Z,6.88
2024-05-09T04:50:52.417Z,6.87
2024-05-09T04:51:44.059Z,6.88
2024-05-09T04:52:35.596Z,6.89
2024-05-09T04:53:27.255Z,6.92
2024-05-09T04:54:26.270Z,6.96
2024-05-09T04:55:25.454Z,6.96
2024-05-09T04:56:17.121Z,7.01
2024-05-09T04:57:08.675Z,7.06
2024-05-09T04:58:00.296Z,7.05
2024-05-09T04:58:51.949Z,7.06
2024-05-09T04:59:43.522Z,7.10
2024-05-09T05:00:37.387Z,7.11
2024-05-09T05:01:30.673Z,7.15
2024-05-09T05:02:22.240Z,7.17
2024-05-09T05:03:15.757Z,7.23
2024-05-09T05:04:08.255Z,7.20
2024-05-09T05:04:59.959Z,7.21
2024-05-09T05:05:51.657Z,7.26
2024-05-09T05:06:43.261Z,7.30
2024-05-09T05:07:34.842Z,7.34
2024-05-09T05:08:26.423Z,7.36
2024-05-09T05:09:18.119Z,7.38
2024-05-09T05:10:14.869Z,7.46
2024-05-09T05:11:12.800Z,7.55
2024-05-09T05:12:24.734Z,7.62
2024-05-09T05:13:19.851Z,7.73
2024-05-09T05:14:13.326Z,7.84
2024-05-09T05:15:05.200Z,7.95
2024-05-09T05:15:58.067Z,8.04
2024-05-09T05:16:50.070Z,8.09
2024-05-09T05:17:41.879Z,8.16
2024-05-09T05:18:33.931Z,8.21
2024-05-09T05:19:25.531Z,8.27
2024-05-09T05:20:24.529Z,8.36
2024-05-09T05:21:22.732Z,8.49
2024-05-09T05:22:14.363Z,8.51
2024-05-09T05:23:10.541Z,8.57
2024-05-09T05:24:02.140Z,8.70
2024-05-09T05:24:53.793Z,8.71
2024-05-09T05:25:49.938Z,8.76
2024-05-09T05:26:41.722Z,8.83
2024-05-09T05:27:33.401Z,8.80
2024-05-09T05:28:24.979Z,8.85
2024-05-09T05:29:20.192Z,8.83
2024-05-09T05:30:21.005Z,8.89
2024-05-09T05:31:16.857Z,8.96
2024-05-09T05:32:08.685Z,9.04
2024-05-09T05:33:00.474Z,9.10
2024-05-09T05:33:52.219Z,9.11
2024-05-09T05:34:43.906Z,9.19
2024-05-09T05:35:36.529Z,9.23
2024-05-09T05:36:28.080Z,9.25
2024-05-09T05:37:19.605Z,9.20
2024-05-09T05:38:11.374Z,9.07
2024-05-09T05:39:03.038Z,9.03
2024-05-09T05:39:54.582Z,9.12
2024-05-09T05:40:46.383Z,9.21
2024-05-09T05:41:38.046Z,9.31
2024-05-09T05:42:29.620Z,9.40
2024-05-09T05:43:21.194Z,9.41
2024-05-09T05:44:14.227Z,9.49
2024-05-09T05:45:08.348Z,9.53
2024-05-09T05:46:01.254Z,9.58
2024-05-09T05:46:52.755Z,9.68
2024-05-09T05:47:44.444Z,9.66
2024-05-09T05:48:36.248Z,9.75
2024-05-09T05:49:28.262Z,9.77
2024-05-09T05:50:27.622Z,9.83
2024-05-09T05:51:25.703Z,9.82
2024-05-09T05:52:17.272Z,9.88
2024-05-09T05:53:10.276Z,9.92
2024-05-09T05:54:02.196Z,9.99
2024-05-09T05:54:53.723Z,10.09
2024-05-09T05:55:45.401Z,10.09
2024-05-09T05:56:37.039Z,10.03
2024-05-09T05:57:28.637Z,10.01
2024-05-09T05:58:21.481Z,10.06
2024-05-09T05:59:15.158Z,10.00
2024-05-09T06:00:09.817Z,9.90
2024-05-09T06:01:05.238Z,9.99
2024-05-09T06:01:56.902Z,10.06
2024-05-09T06:02:48.562Z,9.84
2024-05-09T06:03:40.291Z,9.88
2024-05-09T06:04:32.037Z,9.88
2024-05-09T06:05:24.768Z,9.92
2024-05-09T06:06:18.115Z,9.95
2024-05-09T06:07:09.698Z,9.95
2024-05-09T06:08:01.844Z,9.99
2024-05-09T06:08:53.495Z,10.07
2024-05-09T06:09:47.516Z,10.05
2024-05-09T06:10:41.316Z,10.06
2024-05-09T06:11:33.524Z,10.13
2024-05-09T06:12:25.255Z,10.21
2024-05-09T06:13:16.842Z,10.30
2024-05-09T06:14:09.029Z,10.23
2024-05-09T06:15:00.730Z,10.27
2024-05-09T06:15:52.237Z,10.38
2024-05-09T06:16:43.822Z,10.31
2024-05-09T06:17:35.605Z,10.27
2024-05-09T06:18:27.585Z,10.32
2024-05-09T06:19:19.381Z,10.41
2024-05-09T06:20:19.929Z,10.58
2024-05-09T06:21:19.051Z,10.70
2024-05-09T06:22:11.044Z,10.72
2024-05-09T06:23:03.263Z,10.74
2024-05-09T06:23:55.000Z,10.73
2024-05-09T06:24:46.550Z,10.70
2024-05-09T06:25:38.225Z,10.59
2024-05-09T06:26:29.914Z,10.70
2024-05-09T06:27:21.515Z,10.74
2024-05-09T06:28:13.084Z,10.81
2024-05-09T06:29:04.619Z,10.79
2024-05-09T06:29:56.161Z,10.78
2024-05-09T06:30:47.692Z,10.75
2024-05-09T06:31:43.214Z,10.76
2024-05-09T06:32:35.032Z,10.77
2024-05-09T06:33:26.930Z,10.75
2024-05-09T06:34:19.039Z,10.75
2024-05-09T06:35:10.675Z,10.86
2024-05-09T06:36:02.224Z,10.86
2024-05-09T06:36:53.764Z,10.80
2024-05-09T06:37:45.351Z,10.81
2024-05-09T06:38:37.935Z,10.87
2024-05-09T06:39:29.774Z,10.93
2024-05-09T06:40:25.656Z,10.91
2024-05-09T06:41:25.191Z,10.74
2024-05-09T06:42:16.789Z,10.83
2024-05-09T06:43:13.291Z,10.92
2024-05-09T06:44:05.190Z,10.92
2024-05-09T06:44:56.821Z,10.99
2024-05-09T06:45:50.045Z,11.09
2024-05-09T06:46:42.049Z,11.10
2024-05-09T06:47:33.726Z,11.18
2024-05-09T06:48:25.531Z,11.21
2024-05-09T06:49:17.397Z,11.19
2024-05-09T06:50:16.334Z,11.21
2024-05-09T06:51:14.749Z,11.20
2024-05-09T06:52:06.388Z,11.27
2024-05-09T06:52:57.998Z,11.12
2024-05-09T06:53:49.750Z,11.20
2024-05-09T06:54:41.384Z,11.17
2024-05-09T06:55:32.874Z,11.28
2024-05-09T06:56:24.510Z,11.38
2024-05-09T06:57:16.050Z,11.42
2024-05-09T06:58:11.577Z,11.56
2024-05-09T06:59:03.704Z,11.58
2024-05-09T06:59:59.560Z,11.66
2024-05-09T07:00:51.156Z,11.71
2024-05-09T07:01:42.771Z,11.72
2024-05-09T07:02:34.448Z,11.85
2024-05-09T07:03:26.262Z,11.94
2024-05-09T07:04:18.038Z,12.03
2024-05-09T07:05:09.770Z,12.09
2024-05-09T07:06:01.740Z,12.10
2024-05-09T07:06:53.394Z,12.12
2024-05-09T07:07:44.958Z,12.12
2024-05-09T07:08:36.696Z,12.03
2024-05-09T07:09:28.263Z,12.00
2024-05-09T07:10:28.410Z,12.03
2024-05-09T07:11:24.172Z,12.07
2024-05-09T07:12:15.861Z,12.01
2024-05-09T07:13:11.458Z,12.07
2024-05-09T07:14:03.335Z,12.06
2024-05-09T07:14:54.947Z,12.05
2024-05-09T07:15:46.501Z,12.10
2024-05-09T07:16:38.067Z,12.12
2024-05-09T07:17:29.836Z,12.09
2024-05-09T07:18:21.649Z,12.19
2024-05-09T07:19:13.429Z,12.23
2024-05-09T07:20:07.019Z,12.18
2024-05-09T07:21:00.833Z,11.93
2024-05-09T07:21:52.486Z,12.01
2024-05-09T07:22:43.986Z,12.31
2024-05-09T07:23:35.516Z,12.26
2024-05-09T07:24:27.035Z,12.14
2024-05-09T07:25:18.547Z,12.05
2024-05-09T07:26:10.173Z,12.04
2024-05-09T07:27:01.712Z,12.11
2024-05-09T07:27:53.214Z,12.32
2024-05-09T07:28:44.704Z,12.40
2024-05-09T07:29:38.303Z,12.31
2024-05-09T07:30:33.612Z,12.11
2024-05-09T07:31:30.278Z,12.17
2024-05-09T07:32:21.910Z,12.51
2024-05-09T07:33:23.116Z,12.75
2024-05-09T07:34:16.522Z,12.82
2024-05-09T07:35:08.188Z,13.05
2024-05-09T07:35:59.674Z,13.23
2024-05-09T07:36:52.531Z,13.39
2024-05-09T07:37:44.131Z,13.36
2024-05-09T07:38:35.770Z,13.57
2024-05-09T07:39:28.051Z,13.74
2024-05-09T07:40:28.579Z,13.77
2024-05-09T07:41:26.583Z,13.70
2024-05-09T07:42:18.268Z,13.71
2024-05-09T07:43:14.176Z,13.77
2024-05-09T07:44:06.043Z,13.66
2024-05-09T07:45:11.230Z,13.40
2024-05-09T07:47:13.892Z,13.47
2024-05-09T07:48:32.082Z,13.49
2024-05-09T07:50:33.307Z,13.65
2024-05-09T07:51:32.228Z,13.58
2024-05-09T07:52:39.206Z,13.55
2024-05-09T07:53:36.110Z,13.16
2024-05-09T07:54:13.786Z,13.10
2024-05-09T07:55:05.669Z,12.96
2024-05-09T07:55:57.687Z,12.83
2024-05-09T07:56:49.725Z,12.46
2024-05-09T07:57:41.581Z,12.53
2024-05-09T07:58:33.157Z,12.57
2024-05-09T07:59:24.726Z,12.27
2024-05-09T08:00:20.433Z,12.42
2024-05-09T08:01:18.639Z,12.40
2024-05-09T08:02:10.501Z,12.51
2024-05-09T08:03:02.225Z,12.53
2024-05-09T08:03:54.669Z,12.51
2024-05-09T08:04:46.479Z,12.51
2024-05-09T08:05:38.324Z,12.56
2024-05-09T08:06:29.935Z,12.61
2024-05-09T08:07:21.543Z,12.64
2024-05-09T08:08:13.199Z,12.17
2024-05-09T08:09:08.142Z,11.95
2024-05-09T08:10:08.144Z,12.19
2024-05-09T08:11:02.913Z,12.36
2024-05-09T08:11:54.497Z,12.50
2024-05-09T08:12:46.504Z,12.56
2024-05-09T08:13:38.126Z,12.61
2024-05-09T08:14:29.639Z,12.74
2024-05-09T08:15:21.127Z,12.87
2024-05-09T08:16:14.244Z,12.89
2024-05-09T08:17:06.689Z,13.03
2024-05-09T08:17:58.469Z,12.99
2024-05-09T08:18:50.229Z,13.04
2024-05-09T08:19:42.000Z,12.98
2024-05-09T08:20:35.346Z,13.10
2024-05-09T08:21:27.264Z,13.25
2024-05-09T08:22:18.814Z,13.38
2024-05-09T08:23:11.354Z,13.50
2024-05-09T08:24:03.040Z,13.50
2024-05-09T08:24:54.607Z,13.13
2024-05-09T08:25:46.318Z,13.09
2024-05-09T08:26:38.064Z,13.11
2024-05-09T08:27:29.672Z,13.27
2024-05-09T08:28:21.272Z,13.29
2024-05-09T08:29:12.867Z,13.47
2024-05-09T08:30:07.910Z,13.59
2024-05-09T08:31:01.635Z,13.50
2024-05-09T08:31:56.691Z,13.38
2024-05-09T08:32:48.630Z,13.59
2024-05-09T08:33:45.242Z,13.74
2024-05-09T08:34:36.997Z,13.94
2024-05-09T08:35:28.563Z,14.03
2024-05-09T08:36:20.121Z,13.86
2024-05-09T08:37:15.805Z,13.90
2024-05-09T08:38:13.157Z,13.87
2024-05-09T08:39:04.735Z,14.05
2024-05-09T08:39:57.270Z,14.03
2024-05-09T08:40:49.075Z,14.11
2024-05-09T08:41:42.600Z,14.23
2024-05-09T08:42:36.360Z,14.33
2024-05-09T08:43:29.799Z,14.25
2024-05-09T08:44:23.200Z,14.11
2024-05-09T08:45:15.456Z,14.21
2024-05-09T08:46:07.793Z,14.28
2024-05-09T08:46:59.585Z,14.27
2024-05-09T08:47:52.196Z,14.31
2024-05-09T08:48:46.413Z,14.40
2024-05-09T08:49:40.832Z,14.55
2024-05-09T08:50:39.160Z,14.43
2024-05-09T08:51:31.679Z,14.50
2024-05-09T08:52:23.286Z,14.55
2024-05-09T08:53:15.297Z,14.48
2024-05-09T08:54:07.164Z,14.35
2024-05-09T08:54:59.914Z,14.41
2024-05-09T08:55:52.736Z,14.57
2024-05-09T08:56:46.764Z,14.69
2024-05-09T08:57:39.248Z,14.76
2024-05-09T08:58:32.714Z,14.78
2024-05-09T08:59:33.687Z,14.91
2024-05-09T09:00:35.610Z,15.01
2024-05-09T09:01:31.400Z,15.12
2024-05-09T09:02:24.240Z,15.11
2024-05-09T09:03:18.894Z,15.22
2024-05-09T09:04:15.200Z,15.31
2024-05-09T09:05:16.239Z,15.19
2024-05-09T09:06:12.272Z,15.27
2024-05-09T09:07:06.152Z,15.33
2024-05-09T09:07:57.905Z,15.49
2024-05-09T09:08:50.613Z,15.44
2024-05-09T09:09:47.001Z,15.53
2024-05-09T09:10:39.751Z,15.62
2024-05-09T09:11:31.478Z,15.57
2024-05-09T09:12:23.310Z,15.55
2024-05-09T09:13:14.967Z,15.53
2024-05-09T09:14:06.499Z,15.52
2024-05-09T09:14:58.046Z,15.55
2024-05-09T09:15:50.778Z,15.66
2024-05-09T09:16:42.346Z,15.72
2024-05-09T09:17:34.011Z,15.68
2024-05-09T09:18:26.924Z,15.71
2024-05-09T09:19:19.429Z,15.74
2024-05-09T09:20:16.450Z,15.84
2024-05-09T09:21:10.962Z,15.79
2024-05-09T09:22:02.488Z,15.83
2024-05-09T09:22:58.688Z,15.98
2024-05-09T09:23:50.352Z,16.01
2024-05-09T09:24:42.022Z,16.03
2024-05-09T09:25:33.940Z,15.93
2024-05-09T09:26:25.436Z,15.77
2024-05-09T09:27:16.957Z,15.82
2024-05-09T09:28:09.451Z,15.96
2024-05-09T09:29:04.123Z,15.85
2024-05-09T09:29:56.848Z,16.01
2024-05-09T09:30:48.437Z,16.07
2024-05-09T09:31:42.887Z,16.05
2024-05-09T09:32:34.548Z,16.10
2024-05-09T09:33:26.286Z,16.21
2024-05-09T09:34:18.121Z,16.40
2024-05-09T09:35:09.966Z,16.38
2024-05-09T09:36:02.974Z,16.32
2024-05-09T09:37:03.055Z,16.42
2024-05-09T09:37:57.727Z,16.50
2024-05-09T09:38:51.739Z,16.53
2024-05-09T09:40:49.527Z,16.49
2024-05-09T09:41:47.602Z,16.48
2024-05-09T09:42:40.565Z,16.44
2024-05-09T09:43:33.131Z,16.44
2024-05-09T09:44:25.924Z,16.53
2024-05-09T09:45:18.986Z,16.53
2024-05-09T09:46:13.267Z,16.72
2024-05-09T09:47:06.142Z,16.82
2024-05-09T09:47:59.755Z,16.85
2024-05-09T09:48:51.891Z,16.97
2024-05-09T09:49:43.706Z,17.05
2024-05-09T09:50:36.072Z,16.91
2024-05-09T09:51:27.838Z,16.87
2024-05-09T09:52:19.694Z,16.86
2024-05-09T09:53:13.765Z,16.88
2024-05-09T09:54:06.779Z,17.04
2024-05-09T09:54:58.912Z,17.10
2024-05-09T09:55:52.618Z,17.03
2024-05-09T09:56:45.465Z,17.00
2024-05-09T09:57:38.890Z,16.96
2024-05-09T09:58:32.788Z,17.01
2024-05-09T09:59:25.451Z,16.97
2024-05-09T10:00:24.082Z,16.96
2024-05-09T10:01:19.430Z,17.07
2024-05-09T10:02:12.547Z,17.22
2024-05-09T10:03:04.595Z,17.37
2024-05-09T10:03:57.650Z,17.53
2024-05-09T10:04:49.764Z,17.61
2024-05-09T10:05:45.329Z,17.66
2024-05-09T10:06:42.895Z,17.75
2024-05-09T10:07:41.568Z,17.81
2024-05-09T10:08:35.980Z,17.82
2024-05-09T10:09:27.726Z,17.84
2024-05-09T10:10:30.402Z,17.82
2024-05-09T10:11:25.573Z,17.81
2024-05-09T10:12:20.649Z,17.79
2024-05-09T10:13:12.290Z,17.74
2024-05-09T10:14:03.820Z,17.81
2024-05-09T10:14:55.421Z,17.66
2024-05-09T10:15:51.422Z,17.64
2024-05-09T10:16:44.361Z,17.52
2024-05-09T10:17:36.134Z,17.60
2024-05-09T10:18:36.698Z,17.75
2024-05-09T10:19:28.600Z,17.76
2024-05-09T10:20:24.708Z,17.67
2024-05-09T10:21:20.432Z,17.65
2024-05-09T10:22:12.239Z,17.57
2024-05-09T10:23:03.907Z,17.59
2024-05-09T10:24:01.998Z,17.71
2024-05-09T10:24:54.637Z,17.76
2024-05-09T10:26:04.790Z,17.91
2024-05-09T10:26:56.768Z,17.82
2024-05-09T10:27:55.426Z,17.95
2024-05-09T10:28:47.177Z,18.13
2024-05-09T10:29:38.771Z,18.17
2024-05-09T10:30:35.863Z,18.00
2024-05-09T10:31:29.667Z,17.92
2024-05-09T10:32:21.638Z,17.93
2024-05-09T10:33:13.320Z,17.86
2024-05-09T10:34:05.646Z,17.99
2024-05-09T10:35:05.804Z,17.92
2024-05-09T10:36:03.366Z,17.94
2024-05-09T10:36:55.676Z,18.07
2024-05-09T10:37:47.732Z,18.12
2024-05-09T10:38:41.741Z,18.04
2024-05-09T10:39:39.145Z,18.17
2024-05-09T10:40:32.137Z,18.18
2024-05-09T10:41:23.939Z,18.04
2024-05-09T10:42:16.591Z,17.99
2024-05-09T10:43:09.274Z,18.09
2024-05-09T10:44:00.864Z,18.33
2024-05-09T10:44:53.369Z,18.53
2024-05-09T10:45:44.920Z,18.65
2024-05-09T10:46:36.876Z,18.42
2024-05-09T10:47:29.597Z,18.39
2024-05-09T10:48:21.482Z,18.41
2024-05-09T10:49:16.885Z,18.43
2024-05-09T10:50:18.252Z,18.45
2024-05-09T10:51:19.403Z,18.55
2024-05-09T10:52:11.093Z,18.47
2024-05-09T10:53:02.637Z,18.31
2024-05-09T10:53:56.544Z,18.18
2024-05-09T10:54:52.971Z,18.27
2024-05-09T10:55:56.236Z,18.37
2024-05-09T10:56:56.146Z,18.41
2024-05-09T10:57:47.896Z,18.48
2024-05-09T10:58:39.739Z,18.50
2024-05-09T10:59:39.504Z,18.66
2024-05-09T11:00:36.013Z,18.68
2024-05-09T11:01:28.767Z,18.63
2024-05-09T11:02:20.689Z,18.78
2024-05-09T11:03:12.617Z,18.68
2024-05-09T11:04:05.440Z,18.67
2024-05-09T11:04:57.274Z,18.57
2024-05-09T11:05:49.320Z,18.64
2024-05-09T11:06:41.276Z,18.85
2024-05-09T11:07:33.410Z,18.94
2024-05-09T11:08:25.742Z,18.88
2024-05-09T11:09:17.704Z,18.83
2024-05-09T11:10:12.528Z,18.93
2024-05-09T11:11:08.479Z,19.08
2024-05-09T11:12:01.141Z,19.09
2024-05-09T11:12:52.971Z,19.14
2024-05-09T11:13:44.549Z,19.13
2024-05-09T11:14:36.207Z,18.99
2024-05-09T11:15:41.312Z,18.94
2024-05-09T11:16:32.910Z,19.07
2024-05-09T11:17:24.590Z,19.09
2024-05-09T11:18:26.196Z,19.20
2024-05-09T11:19:19.702Z,19.24
2024-05-09T11:20:17.069Z,19.18
2024-05-09T11:21:14.748Z,19.29
2024-05-09T11:22:06.737Z,19.21
2024-05-09T11:22:58.318Z,19.27
2024-05-09T11:23:50.462Z,19.32
2024-05-09T11:24:42.089Z,19.39
2024-05-09T11:25:33.840Z,19.41
2024-05-09T11:26:29.231Z,19.57
2024-05-09T11:27:21.091Z,19.69
2024-05-09T11:28:12.638Z,19.69
2024-05-09T11:29:04.332Z,19.76
2024-05-09T11:29:57.739Z,19.77
2024-05-09T11:30:50.790Z,19.80
2024-05-09T11:31:46.779Z,19.92
2024-05-09T11:32:38.520Z,19.70
2024-05-09T11:33:30.283Z,19.56
2024-05-09T11:34:22.036Z,19.58
2024-05-09T11:35:13.743Z,19.72
2024-05-09T11:36:06.225Z,19.65
2024-05-09T11:36:57.846Z,19.48
2024-05-09T11:37:49.382Z,19.71
2024-05-09T11:38:41.117Z,19.71
2024-05-09T11:39:32.929Z,19.78